createdAt,value
2023-05-16T00:01:36.917Z,98506.52
2023-05-16T00:06:46.902Z,98515.40
2023-05-16T00:18:15.909Z,98514.94
2023-05-16T00:23:23.539Z,98524.63
2023-05-16T00:28:31.122Z,98533.63
2023-05-16T00:33:39.209Z,98540.73
2023-05-16T00:38:46.875Z,98544.96
2023-05-16T00:43:55.779Z,98541.57
2023-05-16T00:49:03.694Z,98547.14
2023-05-16T00:54:14.213Z,98548.39
2023-05-16T00:59:23.748Z,98556.16
2023-05-16T01:04:33.994Z,98563.12
2023-05-16T01:09:42.463Z,98565.46
2023-05-16T01:14:58.239Z,98554.64
2023-05-16T01:20:15.808Z,98551.99
2023-05-16T01:25:49.963Z,98548.48
2023-05-16T01:30:57.988Z,98553.29
2023-05-16T01:36:13.671Z,98553.49
2023-05-16T01:41:26.669Z,98551.27
2023-05-16T01:46:40.559Z,98547.70
2023-05-16T01:51:53.618Z,98545.98
2023-05-16T01:57:05.802Z,98543.35
2023-05-16T02:02:13.501Z,98542.23
2023-05-16T02:15:55.157Z,98546.86
2023-05-16T02:21:02.938Z,98542.96
2023-05-16T02:26:10.803Z,98541.88
2023-05-16T02:31:28.792Z,98552.33
2023-05-16T02:36:36.685Z,98544.27
2023-05-16T02:41:44.158Z,98545.60
2023-05-16T02:46:51.520Z,98548.50
2023-05-16T02:51:59.277Z,98549.45
2023-05-16T02:57:09.102Z,98549.39
2023-05-16T03:02:16.542Z,98560.89
2023-05-16T03:07:23.893Z,98571.13
2023-05-16T03:12:31.555Z,98566.23
2023-05-16T03:17:39.784Z,98559.31
2023-05-16T03:22:47.208Z,98554.38
2023-05-16T03:27:54.575Z,98560.23
2023-05-16T03:33:01.943Z,98557.14
2023-05-16T03:38:09.610Z,98554.73
2023-05-16T03:43:17.174Z,98570.04
2023-05-16T03:53:04.098Z,98585.20
2023-05-16T03:58:12.658Z,98583.48
2023-05-16T04:03:20.769Z,98575.60
2023-05-16T04:08:28.965Z,98575.08
2023-05-16T04:13:36.396Z,98576.38
2023-05-16T04:18:44.975Z,98588.31
2023-05-16T04:23:52.365Z,98591.02
2023-05-16T04:38:53.001Z,98602.87
2023-05-16T04:44:00.771Z,98609.86
2023-05-16T04:49:08.425Z,98617.71
2023-05-16T04:54:16.620Z,98625.88
2023-05-16T04:59:24.128Z,98628.73
2023-05-16T05:04:31.786Z,98631.58
2023-05-16T05:09:39.190Z,98635.51
2023-05-16T05:14:46.435Z,98637.59
2023-05-16T05:19:53.969Z,98634.81
2023-05-16T05:25:01.385Z,98632.13
2023-05-16T05:30:10.529Z,98637.13
2023-05-16T05:35:18.187Z,98644.84
2023-05-16T05:40:25.595Z,98650.36
2023-05-16T05:45:33.254Z,98656.23
2023-05-16T05:50:40.859Z,98657.20
2023-05-16T05:55:48.313Z,98655.21
2023-05-16T06:00:56.915Z,98661.85
2023-05-16T06:06:05.885Z,98657.65
2023-05-16T06:11:15.047Z,98658.61
2023-05-16T06:16:26.478Z,98650.44
2023-05-16T06:21:34.611Z,98653.96
2023-05-16T06:26:42.364Z,98667.48
2023-05-16T06:31:50.800Z,98667.30
2023-05-16T06:36:58.524Z,98669.39
2023-05-16T06:42:06.595Z,98672.61
2023-05-16T06:47:14.253Z,98663.52
2023-05-16T06:52:22.053Z,98670.89
2023-05-16T06:57:29.814Z,98672.65
2023-05-16T07:02:38.244Z,98675.04
2023-05-16T07:07:46.022Z,98677.27
2023-05-16T07:12:53.285Z,98683.09
2023-05-16T07:18:01.513Z,98692.67
2023-05-16T07:23:09.628Z,98700.73
2023-05-16T07:28:17.688Z,98701.26
2023-05-16T07:36:16.938Z,98705.70
2023-05-16T07:41:26.010Z,98703.05
2023-05-16T07:46:34.671Z,98703.16
2023-05-16T07:51:43.181Z,98701.66
2023-05-16T07:56:50.606Z,98706.92
2023-05-16T08:01:58.431Z,98717.86
2023-05-16T08:07:06.345Z,98730.45
2023-05-16T08:12:14.640Z,98742.31
2023-05-16T08:17:22.152Z,98738.21
2023-05-16T08:22:30.243Z,98727.64
2023-05-16T08:27:38.208Z,98716.66
2023-05-16T08:32:45.930Z,98720.98
2023-05-16T08:37:53.528Z,98730.01
2023-05-16T08:43:01.584Z,98737.62
2023-05-16T08:48:11.479Z,98736.59
2023-05-16T08:53:27.845Z,98738.40
2023-05-16T08:58:35.780Z,98731.66
2023-05-16T09:03:44.125Z,98729.86
2023-05-16T09:08:52.030Z,98727.70
2023-05-16T09:14:02.624Z,98723.47
2023-05-16T09:19:14.664Z,98728.34
2023-05-16T09:24:28.650Z,98729.44
2023-05-16T09:29:38.551Z,98738.86
2023-05-16T09:34:49.579Z,98733.29
2023-05-16T09:39:57.362Z,98728.33
2023-05-16T09:45:05.132Z,98723.02
2023-05-16T09:50:17.072Z,98721.12
2023-05-16T09:55:26.935Z,98718.06
2023-05-16T10:00:36.171Z,98717.63
2023-05-16T10:05:44.271Z,98708.08
2023-05-16T10:10:54.629Z,98704.95
2023-05-16T10:16:08.198Z,98698.58
2023-05-16T10:21:19.528Z,98699.45
2023-05-16T10:26:28.169Z,98695.58
2023-05-16T10:31:36.842Z,98697.11
2023-05-16T10:36:44.849Z,98691.30
2023-05-16T10:41:52.942Z,98685.95
2023-05-16T10:47:04.959Z,98676.70
2023-05-16T10:52:15.978Z,98669.77
2023-05-16T10:57:28.311Z,98674.36
2023-05-16T11:02:42.916Z,98685.08
2023-05-16T11:08:07.809Z,98675.11
2023-05-16T11:13:20.287Z,98678.52
2023-05-16T11:18:27.780Z,98689.00
2023-05-16T11:23:35.355Z,98691.34
2023-05-16T11:28:42.869Z,98694.42
2023-05-16T11:33:50.488Z,98693.08
2023-05-16T11:39:07.187Z,98692.52
2023-05-16T11:44:16.440Z,98685.52
2023-05-16T11:49:24.284Z,98684.80
2023-05-16T12:05:29.022Z,98698.55
2023-05-16T12:10:37.042Z,98703.08
2023-05-16T12:15:44.817Z,98706.76
2023-05-16T12:20:52.749Z,98709.75
2023-05-16T12:26:01.950Z,98705.59
2023-05-16T12:36:36.042Z,98704.96
2023-05-16T12:41:45.105Z,98702.40
2023-05-16T12:46:55.522Z,98701.59
2023-05-16T12:52:06.237Z,98693.32
2023-05-16T12:57:13.740Z,98695.91
2023-05-16T13:02:23.076Z,98688.58
2023-05-16T13:07:31.216Z,98687.27
2023-05-16T13:12:39.697Z,98690.59
2023-05-16T13:17:48.693Z,98689.44
2023-05-16T13:22:56.907Z,98685.42
2023-05-16T13:28:05.156Z,98684.31
2023-05-16T13:33:13.572Z,98679.79
2023-05-16T13:38:21.456Z,98676.62
2023-05-16T13:43:29.072Z,98672.67
2023-05-16T13:48:36.638Z,98671.27
2023-05-16T13:53:44.515Z,98659.55
2023-05-16T13:59:02.062Z,98653.16
2023-05-16T14:04:11.880Z,98652.83
2023-05-16T14:09:19.527Z,98655.84
2023-05-16T14:14:27.106Z,98652.77
2023-05-16T14:19:35.418Z,98652.77
2023-05-16T14:24:43.070Z,98649.87
2023-05-16T14:29:53.089Z,98650.31
2023-05-16T14:35:00.645Z,98642.52
2023-05-16T14:40:11.088Z,98642.59
2023-05-16T14:45:19.053Z,98643.67
2023-05-16T14:50:27.525Z,98646.67
2023-05-16T14:55:35.586Z,98646.61
2023-05-16T15:00:44.222Z,98646.88
2023-05-16T15:05:53.168Z,98648.64
2023-05-16T15:11:00.890Z,98651.79
2023-05-16T15:16:10.355Z,98660.52
2023-05-16T15:21:18.212Z,98659.85
2023-05-16T15:26:25.926Z,98653.33
2023-05-16T15:31:33.951Z,98655.16
2023-05-16T15:36:41.383Z,98647.46
2023-05-16T15:42:09.297Z,98633.33
2023-05-16T15:47:19.846Z,98633.05
2023-05-16T15:52:27.444Z,98631.16
2023-05-16T15:57:36.923Z,98635.63
2023-05-16T16:02:45.753Z,98642.60
2023-05-16T16:07:53.234Z,98647.54
2023-05-16T16:13:03.731Z,98650.47
2023-05-16T16:18:11.955Z,98645.52
2023-05-16T16:23:19.293Z,98646.48
2023-05-16T16:28:29.312Z,98651.05
2023-05-16T16:33:37.148Z,98652.80
2023-05-16T16:38:45.051Z,98654.52
2023-05-16T16:43:53.290Z,98655.57
2023-05-16T16:53:29.520Z,98649.56
2023-05-16T16:58:37.357Z,98659.09
2023-05-16T17:03:46.799Z,98649.30
2023-05-16T17:08:54.409Z,98637.23
2023-05-16T17:14:06.171Z,98637.02
2023-05-16T17:19:14.300Z,98644.80
2023-05-16T17:24:22.465Z,98647.46
2023-05-16T17:29:31.042Z,98645.20
2023-05-16T17:34:38.476Z,98646.48
2023-05-16T17:39:46.880Z,98642.27
2023-05-16T17:44:55.549Z,98644.20
2023-05-16T17:50:03.225Z,98644.67
2023-05-16T17:55:12.292Z,98646.72
2023-05-16T18:00:22.820Z,98641.79
2023-05-16T18:05:30.232Z,98637.09
2023-05-16T18:10:51.039Z,98631.45
2023-05-16T18:16:00.206Z,98633.41
2023-05-16T18:21:08.081Z,98635.08
2023-05-16T18:26:15.879Z,98642.45
2023-05-16T18:31:24.502Z,98648.36
2023-05-16T18:36:32.337Z,98651.37
2023-05-16T18:41:40.650Z,98651.67
2023-05-16T18:52:41.183Z,98645.51
2023-05-16T18:57:48.800Z,98647.84
2023-05-16T19:02:56.547Z,98656.59
2023-05-16T19:08:05.873Z,98652.74
2023-05-16T19:13:13.691Z,98649.41
2023-05-16T19:18:21.592Z,98649.86
2023-05-16T19:23:29.456Z,98650.70
2023-05-16T19:28:38.136Z,98646.16
2023-05-16T19:33:46.828Z,98646.62
2023-05-16T19:38:54.902Z,98651.55
2023-05-16T19:44:02.618Z,98656.39
2023-05-16T19:49:11.123Z,98655.23
2023-05-16T19:54:19.632Z,98656.77
2023-05-16T19:59:26.784Z,98656.19
2023-05-16T20:04:34.339Z,98650.36
2023-05-16T20:09:43.149Z,98657.29
2023-05-16T20:14:50.627Z,98653.95
2023-05-16T20:19:58.391Z,98646.80
2023-05-16T20:25:06.195Z,98641.08
2023-05-16T20:30:15.119Z,98635.23
2023-05-16T20:35:22.953Z,98631.83
2023-05-16T20:40:30.137Z,98628.27
2023-05-16T20:45:37.500Z,98620.19
2023-05-16T20:54:49.677Z,98617.48
2023-05-16T20:59:58.839Z,98612.17
2023-05-16T21:05:23.036Z,98608.14
2023-05-16T21:10:32.265Z,98603.67
2023-05-16T21:15:40.037Z,98594.23
2023-05-16T21:20:48.338Z,98587.57
2023-05-16T21:25:56.326Z,98581.61
2023-05-16T21:31:03.862Z,98572.77
2023-05-16T21:36:12.011Z,98572.03
2023-05-16T21:41:19.468Z,98568.20
2023-05-16T21:46:28.037Z,98562.96
2023-05-16T21:51:35.609Z,98558.64
2023-05-16T21:56:43.268Z,98558.62
2023-05-16T22:01:50.725Z,98544.72
2023-05-16T22:06:58.586Z,98539.54
2023-05-16T22:12:08.307Z,98541.89
2023-05-16T22:17:16.580Z,98547.47
2023-05-16T22:22:26.493Z,98552.77
2023-05-16T22:27:34.923Z,98550.82
2023-05-16T22:32:42.519Z,98546.73
2023-05-16T22:37:50.641Z,98541.73
2023-05-16T22:42:58.054Z,98539.69
2023-05-16T22:48:06.506Z,98550.84
2023-05-16T22:53:14.118Z,98548.18
2023-05-16T22:58:22.300Z,98536.98
2023-05-16T23:03:31.915Z,98543.39
2023-05-16T23:08:39.787Z,98541.88
2023-05-16T23:13:47.416Z,98538.05
2023-05-16T23:18:56.733Z,98538.54
2023-05-16T23:24:04.690Z,98540.32
2023-05-16T23:29:12.257Z,98542.39
2023-05-16T23:34:21.819Z,98536.48
2023-05-16T23:39:29.481Z,98536.53
2023-05-16T23:44:37.332Z,98533.23
2023-05-16T23:49:44.588Z,98530.27
2023-05-16T23:54:52.448Z,98537.92
